createdAt,value
2022-12-18T00:02:53.587Z,83.80
2022-12-18T00:05:59.947Z,83.80
2022-12-18T00:09:08.008Z,83.80
2022-12-18T00:15:29.283Z,83.70
2022-12-18T00:18:47.813Z,83.70
2022-12-18T00:21:51.896Z,83.70
2022-12-18T00:24:55.713Z,83.70
2022-12-18T00:28:08.497Z,83.70
2022-12-18T00:31:22.085Z,83.70
2022-12-18T00:34:28.614Z,83.70
2022-12-18T00:37:41.160Z,83.80
2022-12-18T00:40:45.448Z,83.60
2022-12-18T00:43:50.249Z,83.70
2022-12-18T00:47:00.742Z,83.70
2022-12-18T00:50:06.149Z,83.70
2022-12-18T00:53:19.647Z,83.70
2022-12-18T00:56:32.479Z,83.60
2022-12-18T00:59:44.828Z,83.60
2022-12-18T01:02:55.035Z,83.70
2022-12-18T01:05:59.094Z,83.50
2022-12-18T01:09:06.979Z,83.50
2022-12-18T01:12:25.399Z,83.50
2022-12-18T01:15:39.126Z,83.40
2022-12-18T01:18:44.928Z,83.60
2022-12-18T01:21:51.544Z,83.50
2022-12-18T01:24:59.684Z,83.40
2022-12-18T01:28:06.144Z,83.40
2022-12-18T01:31:23.408Z,83.40
2022-12-18T01:34:29.220Z,83.50
2022-12-18T01:37:39.409Z,83.50
2022-12-18T01:40:50.408Z,83.40
2022-12-18T01:43:59.504Z,83.40
2022-12-18T01:47:08.930Z,83.30
2022-12-18T01:50:19.939Z,83.50
2022-12-18T01:53:29.193Z,83.30
2022-12-18T01:56:34.848Z,83.20
2022-12-18T02:00:02.130Z,83.30
2022-12-18T02:03:19.317Z,83.20
2022-12-18T02:06:31.028Z,83.20
2022-12-18T02:09:41.506Z,83.20
2022-12-18T02:13:02.801Z,83.20
2022-12-18T02:16:27.535Z,83.30
2022-12-18T02:20:00.654Z,83.30
2022-12-18T02:23:31.902Z,83.30
2022-12-18T02:26:48.911Z,83.10
2022-12-18T02:29:58.504Z,83.20
2022-12-18T02:33:06.669Z,83.20
2022-12-18T02:36:16.276Z,83.20
2022-12-18T02:39:28.073Z,83.20
2022-12-18T02:42:46.496Z,83.20
2022-12-18T02:45:57.540Z,83.20
2022-12-18T02:49:10.956Z,83.20
2022-12-18T02:52:38.705Z,83.20
2022-12-18T02:55:56.501Z,83.20
2022-12-18T02:59:08.679Z,83.10
2022-12-18T03:02:26.961Z,83.20
2022-12-18T03:05:38.091Z,83.10
2022-12-18T03:08:46.324Z,83.10
2022-12-18T03:12:12.215Z,83.10
2022-12-18T03:15:22.999Z,83.10
2022-12-18T03:18:38.947Z,83.20
2022-12-18T03:21:51.608Z,83.00
2022-12-18T03:25:04.221Z,83.10
2022-12-18T03:28:11.717Z,83.00
2022-12-18T03:31:20.917Z,83.00
2022-12-18T03:34:32.688Z,83.00
2022-12-18T03:37:45.146Z,83.00
2022-12-18T03:41:09.256Z,83.00
2022-12-18T03:44:34.826Z,83.00
2022-12-18T03:48:01.082Z,83.00
2022-12-18T03:51:16.139Z,83.00
2022-12-18T03:54:20.537Z,83.00
2022-12-18T03:57:37.225Z,83.00
2022-12-18T04:00:45.999Z,83.00
2022-12-18T04:03:55.193Z,83.00
2022-12-18T04:07:03.307Z,83.00
2022-12-18T04:10:13.904Z,83.00
2022-12-18T04:13:27.351Z,83.00
2022-12-18T04:16:31.896Z,83.00
2022-12-18T04:19:46.668Z,83.00
2022-12-18T04:22:55.039Z,83.00
2022-12-18T04:26:00.661Z,83.00
2022-12-18T04:29:19.779Z,83.00
2022-12-18T04:32:26.426Z,83.00
2022-12-18T04:35:35.002Z,83.00
2022-12-18T04:38:40.159Z,83.10
2022-12-18T04:41:51.983Z,83.00
2022-12-18T04:45:04.552Z,83.00
2022-12-18T04:48:15.046Z,82.90
2022-12-18T04:51:26.448Z,83.00
2022-12-18T04:54:40.626Z,82.90
2022-12-18T04:57:45.458Z,82.90
2022-12-18T05:00:53.668Z,82.90
2022-12-18T05:04:16.942Z,82.90
2022-12-18T05:07:27.113Z,82.90
2022-12-18T05:10:59.788Z,82.90
2022-12-18T05:14:04.553Z,82.90
2022-12-18T05:17:20.719Z,82.90
2022-12-18T05:20:33.074Z,82.90
2022-12-18T05:23:55.440Z,82.90
2022-12-18T05:27:11.239Z,82.90
2022-12-18T05:30:19.595Z,82.90
2022-12-18T05:34:00.147Z,82.90
2022-12-18T05:37:06.867Z,82.90
2022-12-18T05:40:22.610Z,82.80
2022-12-18T05:43:37.251Z,82.90
2022-12-18T05:46:46.424Z,82.80
2022-12-18T05:49:59.629Z,82.80
2022-12-18T05:53:05.975Z,82.70
2022-12-18T05:56:20.927Z,82.80
2022-12-18T05:59:41.089Z,82.80
2022-12-18T06:02:51.662Z,82.80
2022-12-18T06:05:57.890Z,82.80
2022-12-18T06:09:10.039Z,82.80
2022-12-18T06:12:20.667Z,82.70
2022-12-18T06:15:26.359Z,82.70
2022-12-18T06:18:45.523Z,82.70
2022-12-18T06:21:53.043Z,82.70
2022-12-18T06:24:58.009Z,82.70
2022-12-18T06:28:10.478Z,82.70
2022-12-18T06:31:24.304Z,82.70
2022-12-18T06:34:35.375Z,82.70
2022-12-18T06:37:41.914Z,82.70
2022-12-18T06:40:53.014Z,82.70
2022-12-18T06:44:10.018Z,82.70
2022-12-18T06:47:19.341Z,82.70
2022-12-18T06:50:23.143Z,82.70
2022-12-18T06:53:27.879Z,82.60
2022-12-18T06:56:42.401Z,82.60
2022-12-18T06:59:50.403Z,82.70
2022-12-18T07:02:54.347Z,82.60
2022-12-18T07:06:08.112Z,82.70
2022-12-18T07:09:21.545Z,82.70
2022-12-18T07:12:32.383Z,82.70
2022-12-18T07:15:40.972Z,82.70
2022-12-18T07:18:53.261Z,82.70
2022-12-18T07:21:57.360Z,82.70
2022-12-18T07:25:04.853Z,82.70
2022-12-18T07:28:19.018Z,82.70
2022-12-18T07:31:32.614Z,82.80
2022-12-18T07:34:40.300Z,82.70
2022-12-18T07:37:44.248Z,82.70
2022-12-18T07:40:52.266Z,82.70
2022-12-18T07:44:14.688Z,82.80
2022-12-18T07:47:20.750Z,82.70
2022-12-18T07:50:27.483Z,82.60
2022-12-18T07:53:38.093Z,82.60
2022-12-18T07:56:44.135Z,82.70
2022-12-18T08:00:04.113Z,83.20
2022-12-18T08:03:25.932Z,82.60
2022-12-18T08:06:48.906Z,82.60
2022-12-18T08:10:09.122Z,82.50
2022-12-18T08:13:17.011Z,82.60
2022-12-18T08:16:41.976Z,82.60
2022-12-18T08:19:54.820Z,82.50
2022-12-18T08:23:02.636Z,82.60
2022-12-18T08:26:23.405Z,82.70
2022-12-18T08:29:27.215Z,82.70
2022-12-18T08:32:34.546Z,82.60
2022-12-18T08:35:45.823Z,82.70
2022-12-18T08:38:50.182Z,82.70
2022-12-18T08:42:25.981Z,82.60
2022-12-18T08:45:44.711Z,82.70
2022-12-18T08:48:51.252Z,82.70
2022-12-18T08:52:15.232Z,83.30
2022-12-18T08:55:21.777Z,82.70
2022-12-18T08:58:27.615Z,82.80
2022-12-18T09:01:51.014Z,82.70
2022-12-18T09:05:13.609Z,82.70
2022-12-18T09:08:24.202Z,82.80
2022-12-18T09:15:34.606Z,82.90
2022-12-18T09:18:55.739Z,82.90
2022-12-18T09:22:04.965Z,82.90
2022-12-18T09:25:11.426Z,83.00
2022-12-18T09:28:28.503Z,83.00
2022-12-18T09:31:39.522Z,83.10
2022-12-18T09:34:44.531Z,83.10
2022-12-18T09:37:52.556Z,83.10
2022-12-18T09:41:07.930Z,83.20
2022-12-18T09:44:33.176Z,83.20
2022-12-18T09:47:50.278Z,83.30
2022-12-18T09:51:03.872Z,83.30
2022-12-18T09:54:26.804Z,83.40
2022-12-18T09:57:49.064Z,83.40
2022-12-18T10:01:17.224Z,83.50
2022-12-18T10:04:34.643Z,83.50
2022-12-18T10:08:06.074Z,83.50
2022-12-18T10:11:35.977Z,83.60
2022-12-18T10:15:02.425Z,83.50
2022-12-18T10:18:42.362Z,83.50
2022-12-18T10:22:14.237Z,83.50
2022-12-18T10:25:27.957Z,83.50
2022-12-18T10:32:18.245Z,83.50
2022-12-18T10:35:34.409Z,83.50
2022-12-18T10:38:41.044Z,83.50
2022-12-18T10:41:54.540Z,83.50
2022-12-18T10:45:14.589Z,83.50
2022-12-18T10:48:29.665Z,83.50
2022-12-18T10:51:44.241Z,83.50
2022-12-18T10:54:54.840Z,83.50
2022-12-18T10:58:26.363Z,83.50
2022-12-18T11:02:01.595Z,83.50
2022-12-18T11:05:28.102Z,83.50
2022-12-18T11:08:49.947Z,83.50
2022-12-18T11:12:20.635Z,83.40
2022-12-18T11:15:36.096Z,83.40
2022-12-18T11:18:42.727Z,83.50
2022-12-18T11:22:07.316Z,83.40
2022-12-18T11:25:36.447Z,83.40
2022-12-18T11:28:49.814Z,83.40
2022-12-18T11:32:56.585Z,83.30
2022-12-18T11:36:22.760Z,83.30
2022-12-18T11:39:39.007Z,83.30
2022-12-18T11:42:58.518Z,83.30
2022-12-18T11:46:17.713Z,83.30
2022-12-18T11:49:38.899Z,83.40
2022-12-18T11:52:45.625Z,83.40
2022-12-18T11:56:06.653Z,83.40
2022-12-18T11:59:21.423Z,83.20
2022-12-18T12:02:44.697Z,83.20
2022-12-18T12:06:15.241Z,83.30
2022-12-18T12:09:32.808Z,83.20
2022-12-18T12:12:57.379Z,83.20
2022-12-18T12:16:30.962Z,83.20
2022-12-18T12:19:50.236Z,83.10
2022-12-18T12:23:16.504Z,83.20
2022-12-18T12:26:37.126Z,83.20
2022-12-18T12:30:05.101Z,83.10
2022-12-18T12:33:41.794Z,83.00
2022-12-18T12:36:58.652Z,83.00
2022-12-18T12:40:26.770Z,83.00
2022-12-18T12:47:22.815Z,83.00
2022-12-18T12:55:47.276Z,83.00
2022-12-18T12:59:02.500Z,83.00
2022-12-18T13:02:23.670Z,83.00
2022-12-18T13:05:45.655Z,83.00
2022-12-18T13:09:14.656Z,82.90
2022-12-18T13:12:51.479Z,82.90
2022-12-18T13:16:23.908Z,82.80
2022-12-18T13:19:38.967Z,82.80
2022-12-18T13:23:00.850Z,82.80
2022-12-18T13:26:48.961Z,82.80
2022-12-18T13:30:04.734Z,82.80
2022-12-18T13:34:25.070Z,82.70
2022-12-18T13:37:50.317Z,82.70
2022-12-18T13:41:14.543Z,82.70
2022-12-18T13:44:41.015Z,82.60
2022-12-18T13:47:49.697Z,82.70
2022-12-18T13:51:01.587Z,82.70
2022-12-18T13:54:28.937Z,82.60
2022-12-18T13:57:42.310Z,82.60
2022-12-18T14:01:00.463Z,82.60
2022-12-18T14:04:20.246Z,82.60
2022-12-18T14:11:04.290Z,82.50
2022-12-18T14:14:21.799Z,82.50
2022-12-18T14:17:46.159Z,82.50
2022-12-18T14:21:04.518Z,82.50
2022-12-18T14:24:40.968Z,82.50
2022-12-18T14:27:53.538Z,82.40
2022-12-18T14:31:22.882Z,82.50
2022-12-18T14:34:36.590Z,82.40
2022-12-18T14:38:03.061Z,82.40
2022-12-18T14:41:17.822Z,82.40
2022-12-18T14:44:39.126Z,82.40
2022-12-18T14:48:01.964Z,82.30
2022-12-18T14:51:11.692Z,82.40
2022-12-18T14:54:26.435Z,82.30
2022-12-18T14:57:43.819Z,82.30
2022-12-18T15:01:08.419Z,82.40
2022-12-18T15:04:34.444Z,82.30
2022-12-18T15:07:56.457Z,82.30
2022-12-18T15:11:09.030Z,82.30
2022-12-18T15:14:57.562Z,82.20
2022-12-18T15:18:35.634Z,82.20
2022-12-18T15:21:46.710Z,82.20
2022-12-18T15:24:54.549Z,82.20
2022-12-18T15:28:07.138Z,82.80
2022-12-18T15:31:38.519Z,82.20
2022-12-18T15:34:55.010Z,82.10
2022-12-18T15:38:19.183Z,82.10
2022-12-18T15:41:39.072Z,82.10
2022-12-18T15:48:31.455Z,82.20
2022-12-18T15:51:48.629Z,82.10
2022-12-18T15:55:19.702Z,82.10
2022-12-18T15:58:26.847Z,82.10
2022-12-18T16:01:44.553Z,82.20
2022-12-18T16:04:54.377Z,82.20
2022-12-18T16:08:21.167Z,82.20
2022-12-18T16:11:42.916Z,82.10
2022-12-18T16:14:50.537Z,82.10
2022-12-18T16:21:45.381Z,82.20
2022-12-18T16:24:53.553Z,82.10
2022-12-18T16:28:07.674Z,82.20
2022-12-18T16:31:21.065Z,82.10
2022-12-18T16:34:30.211Z,82.10
2022-12-18T16:37:47.568Z,82.10
2022-12-18T16:41:21.930Z,82.10
2022-12-18T16:44:34.671Z,82.10
2022-12-18T16:47:51.364Z,82.10
2022-12-18T16:51:04.333Z,82.10
2022-12-18T16:54:15.931Z,82.10
2022-12-18T16:57:27.172Z,82.10
2022-12-18T17:00:48.396Z,82.00
2022-12-18T17:04:06.777Z,82.00
2022-12-18T17:07:20.527Z,82.00
2022-12-18T17:10:37.863Z,82.00
2022-12-18T17:13:46.763Z,82.00
2022-12-18T17:17:19.906Z,82.00
2022-12-18T17:20:21.280Z,82.00
2022-12-18T17:23:29.852Z,82.00
2022-12-18T17:26:37.688Z,82.00
2022-12-18T17:29:49.313Z,82.00
2022-12-18T17:32:56.331Z,82.00
2022-12-18T17:36:02.961Z,82.00
2022-12-18T17:39:09.544Z,82.00
2022-12-18T17:42:35.804Z,82.10
2022-12-18T17:45:47.819Z,82.00
2022-12-18T17:48:54.642Z,82.00
2022-12-18T17:52:22.244Z,82.00
2022-12-18T17:55:34.441Z,81.90
2022-12-18T17:58:44.900Z,82.10
2022-12-18T18:01:58.178Z,82.00
2022-12-18T18:05:16.392Z,81.90
2022-12-18T18:08:33.539Z,81.90
2022-12-18T18:11:59.398Z,81.90
2022-12-18T18:15:06.365Z,81.90
2022-12-18T18:18:16.835Z,81.90
2022-12-18T18:21:34.401Z,81.90
2022-12-18T18:24:43.683Z,81.80
2022-12-18T18:27:55.218Z,81.90
2022-12-18T18:31:09.897Z,81.90
2022-12-18T18:34:25.065Z,81.90
2022-12-18T18:37:30.182Z,81.90
2022-12-18T18:40:41.772Z,81.90
2022-12-18T18:43:53.036Z,81.90
2022-12-18T18:47:09.672Z,81.80
2022-12-18T18:50:19.839Z,81.80
2022-12-18T18:53:31.115Z,81.80
2022-12-18T18:57:20.566Z,81.80
2022-12-18T19:00:27.985Z,81.70
2022-12-18T19:03:36.931Z,81.80
2022-12-18T19:06:56.478Z,81.80
2022-12-18T19:10:05.505Z,81.80
2022-12-18T19:13:26.490Z,81.80
2022-12-18T19:16:38.534Z,81.90
2022-12-18T19:19:51.676Z,81.90
2022-12-18T19:22:59.743Z,81.80
2022-12-18T19:26:28.049Z,81.80
2022-12-18T19:29:47.555Z,81.80
2022-12-18T19:33:05.464Z,81.80
2022-12-18T19:36:36.632Z,81.90
2022-12-18T19:39:57.355Z,81.80
2022-12-18T19:43:23.502Z,81.80
2022-12-18T19:46:41.673Z,81.80
2022-12-18T19:49:54.259Z,81.80
2022-12-18T19:53:09.714Z,81.80
2022-12-18T19:56:39.142Z,82.00
2022-12-18T20:00:00.608Z,81.80
2022-12-18T20:03:27.144Z,81.80
2022-12-18T20:06:39.506Z,81.80
2022-12-18T20:09:59.591Z,81.70
2022-12-18T20:13:20.176Z,81.80
2022-12-18T20:16:31.905Z,81.70
2022-12-18T20:19:49.828Z,81.70
2022-12-18T20:23:03.434Z,81.70
2022-12-18T20:26:12.777Z,81.80
2022-12-18T20:29:32.984Z,81.70
2022-12-18T20:36:14.219Z,81.60
2022-12-18T20:39:29.543Z,81.70
2022-12-18T20:42:52.896Z,81.60
2022-12-18T20:46:21.696Z,81.60
2022-12-18T20:49:31.552Z,81.50
2022-12-18T20:52:37.425Z,81.60
2022-12-18T20:56:01.067Z,81.60
2022-12-18T20:59:34.799Z,81.60
2022-12-18T21:02:45.377Z,81.60
2022-12-18T21:05:52.849Z,81.60
2022-12-18T21:09:05.542Z,81.70
2022-12-18T21:12:40.297Z,81.60
2022-12-18T21:15:55.773Z,81.60
2022-12-18T21:19:02.391Z,81.60
2022-12-18T21:22:33.026Z,81.60
2022-12-18T21:25:42.904Z,81.60
2022-12-18T21:29:03.722Z,81.60
2022-12-18T21:32:13.862Z,81.60
2022-12-18T21:35:33.895Z,81.60
2022-12-18T21:38:43.017Z,81.60
2022-12-18T21:42:05.269Z,81.60
2022-12-18T21:45:27.909Z,81.60
2022-12-18T21:48:42.882Z,81.60
2022-12-18T21:51:55.396Z,81.60
2022-12-18T21:55:08.601Z,81.70
2022-12-18T21:58:16.702Z,81.60
2022-12-18T22:01:20.891Z,81.60
2022-12-18T22:04:32.864Z,81.70
2022-12-18T22:07:43.014Z,81.70
2022-12-18T22:10:47.246Z,81.70
2022-12-18T22:13:58.105Z,81.70
2022-12-18T22:17:05.103Z,81.70
2022-12-18T22:20:15.535Z,81.70
2022-12-18T22:23:29.645Z,81.70
2022-12-18T22:26:39.496Z,81.80
2022-12-18T22:30:04.569Z,81.80
2022-12-18T22:33:12.438Z,81.80
2022-12-18T22:36:17.552Z,81.90
2022-12-18T22:39:37.827Z,81.90
2022-12-18T22:42:56.782Z,82.00
2022-12-18T22:46:21.263Z,82.00
2022-12-18T22:49:38.073Z,81.90
2022-12-18T22:52:46.818Z,82.00
2022-12-18T22:56:08.566Z,83.00
2022-12-18T22:59:39.973Z,82.20
2022-12-18T23:03:04.499Z,82.00
2022-12-18T23:09:48.982Z,82.10
2022-12-18T23:13:14.007Z,82.10
2022-12-18T23:16:37.784Z,82.20
2022-12-18T23:19:49.495Z,82.30
2022-12-18T23:23:04.549Z,82.30
2022-12-18T23:26:13.106Z,82.40
2022-12-18T23:29:19.559Z,82.20
2022-12-18T23:32:39.611Z,82.30
2022-12-18T23:35:51.308Z,82.20
2022-12-18T23:39:03.684Z,82.30
2022-12-18T23:42:10.587Z,82.30
2022-12-18T23:45:31.853Z,82.30
2022-12-18T23:48:49.422Z,82.40
2022-12-18T23:51:58.208Z,82.40
2022-12-18T23:55:11.864Z,82.40
2022-12-18T23:58:20.471Z,82.50
